createdAt,value
2022-12-22T00:01:50.432Z,0.22
2022-12-22T00:05:11.187Z,0.25
2022-12-22T00:08:32.962Z,0.40
2022-12-22T00:11:53.143Z,0.35
2022-12-22T00:15:13.338Z,0.47
2022-12-22T00:18:35.019Z,0.25
2022-12-22T00:21:55.331Z,0.40
2022-12-22T00:25:16.949Z,0.63
2022-12-22T00:28:37.405Z,0.40
2022-12-22T00:31:58.791Z,0.50
2022-12-22T00:35:19.995Z,0.40
2022-12-22T00:38:40.214Z,0.50
2022-12-22T00:42:01.948Z,0.38
2022-12-22T00:45:22.456Z,0.60
2022-12-22T00:48:45.334Z,0.55
2022-12-22T00:52:06.151Z,0.32
2022-12-22T00:55:32.490Z,0.45
2022-12-22T00:58:55.183Z,0.40
2022-12-22T01:02:15.907Z,0.60
2022-12-22T01:05:36.579Z,0.40
2022-12-22T01:08:57.231Z,0.28
2022-12-22T01:12:17.587Z,0.40
2022-12-22T01:15:39.629Z,0.30
2022-12-22T01:19:00.662Z,0.50
2022-12-22T01:22:20.918Z,0.40
2022-12-22T01:25:41.500Z,0.25
2022-12-22T01:29:02.012Z,0.28
2022-12-22T01:32:24.331Z,0.10
2022-12-22T01:35:46.928Z,0.50
2022-12-22T01:39:07.362Z,0.13
2022-12-22T01:42:30.580Z,0.17
2022-12-22T01:45:54.058Z,0.30
2022-12-22T01:49:15.798Z,0.28
2022-12-22T01:52:38.767Z,0.40
2022-12-22T01:55:59.006Z,0.40
2022-12-22T01:59:22.649Z,0.35
2022-12-22T02:02:45.048Z,0.10
2022-12-22T02:06:16.743Z,0.30
2022-12-22T02:09:49.327Z,0.20
2022-12-22T02:13:19.179Z,0.20
2022-12-22T02:16:49.417Z,0.20
2022-12-22T02:20:33.691Z,0.50
2022-12-22T02:24:14.997Z,0.30
2022-12-22T02:27:37.467Z,0.32
2022-12-22T02:30:58.889Z,0.15
2022-12-22T02:34:19.246Z,0.30
2022-12-22T02:37:48.422Z,0.50
2022-12-22T02:41:16.143Z,0.32
2022-12-22T02:44:55.964Z,0.00
2022-12-22T02:48:23.012Z,0.50
2022-12-22T02:51:47.679Z,0.20
2022-12-22T02:55:08.295Z,0.15
2022-12-22T02:58:30.629Z,0.00
2022-12-22T03:01:52.769Z,0.40
2022-12-22T03:05:13.316Z,0.35
2022-12-22T03:08:33.951Z,0.28
2022-12-22T03:11:54.274Z,0.40
2022-12-22T03:15:14.472Z,0.25
2022-12-22T03:18:35.920Z,0.40
2022-12-22T03:21:56.410Z,0.32
2022-12-22T03:25:17.010Z,0.10
2022-12-22T03:28:19.300Z,0.30
2022-12-22T03:31:21.127Z,0.20
2022-12-22T03:34:24.322Z,0.30
2022-12-22T03:37:26.030Z,0.17
2022-12-22T03:40:27.803Z,0.28
2022-12-22T03:43:48.935Z,0.30
2022-12-22T03:46:50.623Z,0.30
2022-12-22T03:49:53.675Z,0.30
2022-12-22T03:52:55.358Z,0.15
2022-12-22T03:55:58.369Z,0.10
2022-12-22T04:02:03.705Z,0.20
2022-12-22T04:05:08.233Z,0.45
2022-12-22T04:08:09.977Z,0.32
2022-12-22T04:11:31.332Z,0.30
2022-12-22T04:14:34.743Z,0.30
2022-12-22T04:17:36.546Z,0.22
2022-12-22T04:20:39.669Z,1.30
2022-12-22T04:23:41.507Z,0.25
2022-12-22T04:26:43.353Z,0.20
2022-12-22T04:29:45.009Z,0.10
2022-12-22T04:32:46.785Z,0.22
2022-12-22T04:35:49.839Z,0.13
2022-12-22T04:38:51.537Z,0.20
2022-12-22T04:41:53.242Z,0.50
2022-12-22T04:44:54.887Z,0.30
2022-12-22T04:47:56.603Z,0.28
2022-12-22T04:51:00.699Z,0.20
2022-12-22T04:54:02.412Z,0.30
2022-12-22T04:57:04.356Z,0.40
2022-12-22T05:00:07.725Z,0.20
2022-12-22T05:03:09.735Z,0.55
2022-12-22T05:06:13.208Z,0.00
2022-12-22T05:09:14.985Z,0.10
2022-12-22T05:12:35.161Z,0.10
2022-12-22T05:15:37.473Z,0.20
2022-12-22T05:18:40.674Z,0.05
2022-12-22T05:21:43.843Z,0.60
2022-12-22T05:24:45.484Z,0.35
2022-12-22T05:27:49.693Z,0.30
2022-12-22T05:30:51.641Z,0.17
2022-12-22T05:33:53.498Z,0.25
2022-12-22T05:36:56.739Z,0.43
2022-12-22T05:39:58.522Z,0.10
2022-12-22T05:43:00.243Z,0.10
2022-12-22T05:46:03.350Z,0.47
2022-12-22T05:49:05.057Z,0.10
2022-12-22T05:52:08.106Z,0.30
2022-12-22T05:55:10.516Z,0.55
2022-12-22T05:58:12.217Z,0.10
2022-12-22T06:01:13.943Z,0.05
2022-12-22T06:04:15.796Z,0.22
2022-12-22T06:07:19.623Z,0.20
2022-12-22T06:10:21.467Z,0.35
2022-12-22T06:13:23.206Z,0.20
2022-12-22T06:16:24.989Z,0.00
2022-12-22T06:19:26.725Z,0.20
2022-12-22T06:22:29.827Z,0.30
2022-12-22T06:25:31.580Z,0.10
2022-12-22T06:28:33.373Z,0.30
2022-12-22T06:31:35.179Z,0.50
2022-12-22T06:34:36.946Z,0.30
2022-12-22T06:37:40.039Z,0.38
2022-12-22T06:40:41.847Z,0.28
2022-12-22T06:43:43.563Z,0.10
2022-12-22T06:46:45.354Z,0.52
2022-12-22T06:49:47.108Z,0.17
2022-12-22T06:52:50.098Z,0.20
2022-12-22T06:55:51.830Z,0.22
2022-12-22T06:58:53.576Z,0.00
2022-12-22T07:01:55.412Z,0.15
2022-12-22T07:04:57.176Z,0.45
2022-12-22T07:08:07.765Z,0.10
2022-12-22T07:11:10.665Z,0.08
2022-12-22T07:14:12.534Z,0.50
2022-12-22T07:17:14.149Z,0.60
2022-12-22T07:20:15.899Z,0.10
2022-12-22T07:23:18.963Z,0.38
2022-12-22T07:26:20.619Z,0.13
2022-12-22T07:29:23.355Z,0.40
2022-12-22T07:32:25.044Z,0.43
2022-12-22T07:35:26.771Z,0.45
2022-12-22T07:38:31.590Z,0.98
2022-12-22T07:41:52.114Z,0.30
2022-12-22T07:44:53.928Z,0.63
2022-12-22T07:47:59.340Z,0.30
2022-12-22T07:51:04.486Z,0.25
2022-12-22T07:54:09.167Z,0.30
2022-12-22T07:57:10.881Z,0.38
2022-12-22T08:00:14.066Z,0.17
2022-12-22T08:03:16.157Z,0.30
2022-12-22T08:06:18.218Z,0.65
2022-12-22T08:09:22.851Z,0.10
2022-12-22T08:12:27.770Z,0.43
2022-12-22T08:18:31.339Z,0.08
2022-12-22T08:21:33.126Z,0.30
2022-12-22T08:24:36.247Z,0.40
2022-12-22T08:27:43.946Z,0.47
2022-12-22T08:30:46.636Z,0.38
2022-12-22T08:33:48.735Z,0.63
2022-12-22T08:36:55.361Z,1.25
2022-12-22T08:40:02.873Z,0.10
2022-12-22T08:43:07.880Z,0.45
2022-12-22T08:46:09.607Z,0.60
2022-12-22T08:49:11.452Z,1.60
2022-12-22T08:52:18.412Z,0.80
2022-12-22T08:55:22.197Z,0.52
2022-12-22T08:58:23.855Z,0.10
2022-12-22T09:01:25.689Z,0.52
2022-12-22T09:04:27.438Z,0.52
2022-12-22T09:07:29.801Z,0.70
2022-12-22T09:10:32.922Z,0.35
2022-12-22T09:13:34.657Z,0.50
2022-12-22T09:16:36.930Z,0.70
2022-12-22T09:19:38.645Z,0.52
2022-12-22T09:22:40.504Z,0.88
2022-12-22T09:25:43.750Z,0.40
2022-12-22T09:28:50.104Z,0.57
2022-12-22T09:31:52.558Z,0.77
2022-12-22T09:34:54.355Z,0.52
2022-12-22T09:37:56.023Z,0.60
2022-12-22T09:40:59.191Z,0.35
2022-12-22T09:44:04.009Z,0.20
2022-12-22T09:50:25.960Z,0.73
2022-12-22T09:53:27.640Z,0.65
2022-12-22T09:56:30.890Z,0.50
2022-12-22T09:59:32.701Z,0.40
2022-12-22T10:02:44.102Z,0.40
2022-12-22T10:05:53.901Z,0.20
2022-12-22T10:08:55.708Z,0.88
2022-12-22T10:12:00.643Z,0.10
2022-12-22T10:18:12.203Z,0.20
2022-12-22T10:21:14.971Z,0.20
2022-12-22T10:24:25.704Z,0.40
2022-12-22T10:27:32.456Z,0.17
2022-12-22T10:30:36.609Z,0.22
2022-12-22T10:33:46.228Z,0.30
2022-12-22T10:36:50.852Z,0.22
2022-12-22T10:39:52.516Z,0.30
2022-12-22T10:42:56.287Z,0.13
2022-12-22T10:45:58.700Z,0.00
2022-12-22T10:49:13.195Z,0.05
2022-12-22T10:52:18.390Z,0.05
2022-12-22T10:55:25.795Z,0.10
2022-12-22T10:58:29.030Z,0.30
2022-12-22T11:01:33.677Z,0.00
2022-12-22T11:04:35.687Z,0.10
2022-12-22T11:07:39.478Z,0.10
2022-12-22T11:10:46.612Z,0.10
2022-12-22T11:14:01.278Z,0.25
2022-12-22T11:17:12.689Z,0.05
2022-12-22T11:20:37.247Z,0.00
2022-12-22T11:23:46.735Z,0.15
2022-12-22T11:26:59.660Z,0.10
2022-12-22T11:30:10.072Z,0.10
2022-12-22T11:33:25.817Z,0.10
2022-12-22T11:36:39.662Z,0.00
2022-12-22T11:39:47.944Z,0.00
2022-12-22T11:43:03.748Z,0.00
2022-12-22T11:46:21.179Z,0.05
2022-12-22T11:49:38.601Z,0.10
2022-12-22T11:52:55.796Z,0.10
2022-12-22T11:56:15.929Z,0.22
2022-12-22T11:59:41.538Z,0.08
2022-12-22T12:03:28.204Z,0.20
2022-12-22T12:06:45.469Z,0.00
2022-12-22T12:13:05.323Z,0.03
2022-12-22T12:16:14.279Z,0.10
2022-12-22T12:19:36.083Z,0.20
2022-12-22T12:22:51.037Z,0.00
2022-12-22T12:26:00.328Z,0.20
2022-12-22T12:29:13.807Z,0.08
2022-12-22T12:32:21.418Z,0.45
2022-12-22T12:35:43.158Z,0.50
2022-12-22T12:39:07.652Z,0.82
2022-12-22T12:42:21.903Z,0.93
2022-12-22T12:45:34.836Z,0.10
2022-12-22T12:48:40.146Z,0.40
2022-12-22T12:51:47.337Z,0.20
2022-12-22T12:54:51.911Z,0.20
2022-12-22T12:57:53.762Z,0.00
2022-12-22T13:00:58.800Z,0.20
2022-12-22T13:04:04.159Z,0.05
2022-12-22T13:07:06.665Z,0.25
2022-12-22T13:10:19.256Z,0.10
2022-12-22T13:13:50.473Z,0.00
2022-12-22T13:17:32.597Z,0.00
2022-12-22T13:20:36.813Z,0.35
2022-12-22T13:24:14.491Z,0.20
2022-12-22T13:27:07.175Z,0.40
2022-12-22T13:30:14.773Z,0.40
2022-12-22T13:33:20.895Z,0.30
2022-12-22T13:36:27.846Z,0.10
2022-12-22T13:39:29.605Z,0.00
2022-12-22T13:42:35.552Z,0.40
2022-12-22T13:45:39.941Z,0.20
2022-12-22T13:48:45.426Z,0.30
2022-12-22T13:51:47.960Z,0.50
2022-12-22T13:54:50.056Z,0.32
2022-12-22T13:57:58.438Z,0.20
2022-12-22T14:01:02.564Z,0.43
2022-12-22T14:04:07.882Z,0.00
2022-12-22T14:07:10.916Z,0.20
2022-12-22T14:10:12.834Z,0.17
2022-12-22T14:13:19.451Z,0.40
2022-12-22T14:16:21.264Z,0.40
2022-12-22T14:19:24.695Z,0.20
2022-12-22T14:22:29.181Z,0.50
2022-12-22T14:25:33.803Z,0.17
2022-12-22T14:28:43.162Z,0.05
2022-12-22T14:31:53.302Z,0.20
2022-12-22T14:34:56.344Z,0.20
2022-12-22T14:38:20.706Z,0.15
2022-12-22T14:41:46.197Z,0.08
2022-12-22T14:44:49.838Z,0.10
2022-12-22T14:47:52.771Z,0.20
2022-12-22T14:50:55.423Z,0.30
2022-12-22T14:54:03.146Z,0.30
2022-12-22T14:57:44.146Z,0.30
2022-12-22T15:01:23.209Z,0.60
2022-12-22T15:04:24.998Z,0.50
2022-12-22T15:10:48.348Z,0.30
2022-12-22T15:13:51.630Z,0.45
2022-12-22T15:16:57.830Z,0.13
2022-12-22T15:20:00.044Z,0.40
2022-12-22T15:23:01.892Z,0.20
2022-12-22T15:26:03.577Z,3.03
2022-12-22T15:29:06.523Z,1.00
2022-12-22T15:32:12.135Z,1.15
2022-12-22T15:35:19.767Z,1.00
2022-12-22T15:38:23.798Z,1.00
2022-12-22T15:41:25.526Z,0.90
2022-12-22T15:44:33.589Z,0.57
2022-12-22T15:47:41.286Z,0.40
2022-12-22T15:50:44.234Z,0.77
2022-12-22T15:53:46.273Z,0.50
2022-12-22T15:56:51.447Z,1.00
2022-12-22T15:59:53.111Z,0.70
2022-12-22T16:02:56.304Z,0.22
2022-12-22T16:05:58.624Z,0.47
2022-12-22T16:09:00.568Z,0.65
2022-12-22T16:12:02.222Z,0.70
2022-12-22T16:15:05.226Z,1.42
2022-12-22T16:18:12.365Z,1.15
2022-12-22T16:21:17.294Z,1.20
2022-12-22T16:27:24.615Z,1.13
2022-12-22T16:30:29.259Z,1.10
2022-12-22T16:33:32.312Z,0.82
2022-12-22T16:36:34.000Z,0.82
2022-12-22T16:39:35.817Z,1.30
2022-12-22T16:45:59.360Z,0.90
2022-12-22T16:49:02.517Z,0.98
2022-12-22T16:52:04.527Z,0.60
2022-12-22T16:55:13.621Z,0.70
2022-12-22T16:58:15.255Z,1.10
2022-12-22T17:01:27.347Z,0.75
2022-12-22T17:04:32.038Z,0.98
2022-12-22T17:07:33.957Z,0.75
2022-12-22T17:10:35.831Z,0.68
2022-12-22T17:13:38.492Z,0.68
2022-12-22T17:16:40.183Z,0.77
2022-12-22T17:19:43.457Z,1.40
2022-12-22T17:22:48.182Z,1.52
2022-12-22T17:25:50.135Z,5.18
2022-12-22T17:28:53.125Z,1.38
2022-12-22T17:31:56.633Z,2.17
2022-12-22T17:35:00.078Z,1.48
2022-12-22T17:38:01.769Z,1.70
2022-12-22T17:41:03.510Z,1.63
2022-12-22T17:44:05.385Z,1.50
2022-12-22T17:47:07.131Z,1.63
2022-12-22T17:50:13.372Z,1.83
2022-12-22T17:53:19.050Z,1.45
2022-12-22T17:56:22.528Z,1.45
2022-12-22T17:59:24.224Z,1.40
2022-12-22T18:02:26.438Z,1.70
2022-12-22T18:05:36.827Z,1.30
2022-12-22T18:08:38.726Z,2.28
2022-12-22T18:11:45.718Z,2.15
2022-12-22T18:14:48.306Z,3.15
2022-12-22T18:17:50.307Z,2.15
2022-12-22T18:21:06.370Z,2.00
2022-12-22T18:24:15.965Z,1.65
2022-12-22T18:27:19.032Z,1.20
2022-12-22T18:30:24.320Z,1.48
2022-12-22T18:33:25.961Z,2.47
2022-12-22T18:36:31.582Z,2.10
2022-12-22T18:39:35.295Z,2.60
2022-12-22T18:42:37.002Z,2.15
2022-12-22T18:45:38.748Z,1.98
2022-12-22T18:48:40.537Z,1.85
2022-12-22T18:51:44.734Z,1.02
2022-12-22T18:54:47.123Z,1.70
2022-12-22T18:57:52.673Z,2.47
2022-12-22T19:00:55.853Z,1.02
2022-12-22T19:03:58.802Z,1.55
2022-12-22T19:07:01.830Z,1.13
2022-12-22T19:10:04.033Z,1.90
2022-12-22T19:13:08.243Z,2.35
2022-12-22T19:16:13.856Z,1.27
2022-12-22T19:19:18.310Z,1.20
2022-12-22T19:22:21.359Z,1.38
2022-12-22T19:25:27.427Z,1.73
2022-12-22T19:28:34.772Z,1.55
2022-12-22T19:31:37.916Z,1.42
2022-12-22T19:34:39.781Z,1.17
2022-12-22T19:37:42.908Z,3.65
2022-12-22T19:40:44.678Z,2.08
2022-12-22T19:43:46.326Z,1.77
2022-12-22T19:46:48.371Z,1.40
2022-12-22T19:49:50.234Z,1.95
2022-12-22T19:52:54.710Z,1.13
2022-12-22T19:55:57.247Z,1.20
2022-12-22T19:59:00.481Z,2.00
2022-12-22T20:02:02.695Z,1.20
2022-12-22T20:05:11.651Z,1.25
2022-12-22T20:08:18.275Z,1.23
2022-12-22T20:11:20.392Z,1.30
2022-12-22T20:14:22.160Z,0.95
2022-12-22T20:17:24.107Z,1.45
2022-12-22T20:20:31.668Z,1.17
2022-12-22T20:23:37.244Z,1.05
2022-12-22T20:26:38.968Z,0.85
2022-12-22T20:29:40.639Z,1.05
2022-12-22T20:32:42.391Z,0.85
2022-12-22T20:35:45.746Z,1.02
2022-12-22T20:38:50.172Z,1.38
2022-12-22T20:41:53.691Z,0.95
2022-12-22T20:45:03.225Z,1.38
2022-12-22T20:48:06.633Z,1.02
2022-12-22T20:51:13.312Z,0.90
2022-12-22T20:54:17.916Z,0.75
2022-12-22T20:57:22.859Z,0.95
2022-12-22T21:00:26.531Z,1.02
2022-12-22T21:03:29.015Z,0.80
2022-12-22T21:06:34.799Z,1.63
2022-12-22T21:09:39.403Z,0.52
2022-12-22T21:12:41.334Z,0.95
2022-12-22T21:15:45.575Z,0.82
2022-12-22T21:18:47.982Z,0.73
2022-12-22T21:21:49.849Z,0.50
2022-12-22T21:24:52.921Z,0.65
2022-12-22T21:27:56.008Z,1.10
2022-12-22T21:30:57.865Z,0.60
2022-12-22T21:33:59.812Z,1.20
2022-12-22T21:37:02.946Z,0.32
2022-12-22T21:40:15.215Z,0.57
2022-12-22T21:43:17.300Z,0.25
2022-12-22T21:46:19.015Z,0.57
2022-12-22T21:49:22.738Z,0.45
2022-12-22T21:52:24.692Z,1.02
2022-12-22T21:55:30.644Z,0.90
2022-12-22T21:58:32.375Z,0.30
2022-12-22T22:01:34.227Z,1.15
2022-12-22T22:04:35.947Z,0.98
2022-12-22T22:07:37.716Z,0.73
2022-12-22T22:10:42.354Z,1.20
2022-12-22T22:13:44.034Z,0.68
2022-12-22T22:16:45.706Z,1.20
2022-12-22T22:19:47.445Z,1.02
2022-12-22T22:22:50.891Z,0.40
2022-12-22T22:25:58.245Z,0.90
2022-12-22T22:29:00.095Z,0.82
2022-12-22T22:32:01.940Z,0.60
2022-12-22T22:35:05.386Z,0.50
2022-12-22T22:38:07.039Z,1.00
2022-12-22T22:41:10.144Z,1.10
2022-12-22T22:44:12.136Z,0.40
2022-12-22T22:47:13.819Z,0.90
2022-12-22T22:50:15.673Z,0.50
2022-12-22T22:53:17.581Z,0.73
2022-12-22T22:56:21.135Z,0.63
2022-12-22T22:59:23.430Z,0.90
2022-12-22T23:02:25.417Z,1.05
2022-12-22T23:05:27.418Z,0.85
2022-12-22T23:08:30.523Z,0.65
2022-12-22T23:11:33.677Z,0.60
2022-12-22T23:14:35.558Z,0.45
2022-12-22T23:17:37.350Z,0.50
2022-12-22T23:20:44.257Z,0.50
2022-12-22T23:23:46.111Z,0.73
2022-12-22T23:26:49.293Z,0.77
2022-12-22T23:29:51.060Z,0.40
2022-12-22T23:32:52.711Z,0.70
2022-12-22T23:35:54.603Z,0.50
2022-12-22T23:38:56.330Z,0.45
2022-12-22T23:41:59.509Z,1.00
2022-12-22T23:45:01.202Z,0.38
2022-12-22T23:48:02.897Z,0.50
2022-12-22T23:51:05.553Z,0.30
2022-12-22T23:54:07.386Z,0.30
2022-12-22T23:57:10.478Z,0.50
